sensor_id;sensor_type;location;lat;lon;timestamp;pressure;altitude;pressure_sealevel;temperature;humidity
10992;BME280;5549;47.028;15.514;2023-05-01T00:00:38;96804.19;;;12.16;53.56
10992;BME280;5549;47.028;15.514;2023-05-01T00:03:06;96801.19;;;12.00;54.52
10992;BME280;5549;47.028;15.514;2023-05-01T00:05:33;96802.28;;;11.97;54.59
10992;BME280;5549;47.028;15.514;2023-05-01T00:08:01;96800.22;;;12.01;54.96
10992;BME280;5549;47.028;15.514;2023-05-01T00:10:35;96798.03;;;12.06;53.97
10992;BME280;5549;47.028;15.514;2023-05-01T00:13:06;96785.97;;;12.03;54.54
10992;BME280;5549;47.028;15.514;2023-05-01T00:15:40;96790.13;;;12.06;54.30
10992;BME280;5549;47.028;15.514;2023-05-01T00:18:08;96789.44;;;12.04;54.15
10992;BME280;5549;47.028;15.514;2023-05-01T00:20:38;96782.22;;;12.06;54.38
10992;BME280;5549;47.028;15.514;2023-05-01T00:23:06;96794.00;;;12.02;54.48
10992;BME280;5549;47.028;15.514;2023-05-01T00:25:33;96790.63;;;11.90;55.15
10992;BME280;5549;47.028;15.514;2023-05-01T00:28:05;96790.47;;;11.92;54.87
10992;BME280;5549;47.028;15.514;2023-05-01T00:30:35;96787.41;;;11.86;55.08
10992;BME280;5549;47.028;15.514;2023-05-01T00:33:03;96787.81;;;11.82;55.17
10992;BME280;5549;47.028;15.514;2023-05-01T00:35:33;96783.25;;;11.63;55.95
10992;BME280;5549;47.028;15.514;2023-05-01T00:38:01;96782.00;;;11.67;55.14
10992;BME280;5549;47.028;15.514;2023-05-01T00:40:31;96782.00;;;11.67;55.53
10992;BME280;5549;47.028;15.514;2023-05-01T00:42:59;96780.09;;;11.69;56.06
10992;BME280;5549;47.028;15.514;2023-05-01T00:45:32;96775.09;;;11.45;56.32
10992;BME280;5549;47.028;15.514;2023-05-01T00:47:59;96779.66;;;11.22;57.17
10992;BME280;5549;47.028;15.514;2023-05-01T00:50:29;96781.06;;;11.27;57.17
10992;BME280;5549;47.028;15.514;2023-05-01T00:52:59;96780.94;;;11.28;57.33
10992;BME280;5549;47.028;15.514;2023-05-01T00:55:27;96778.19;;;11.30;56.68
10992;BME280;5549;47.028;15.514;2023-05-01T00:57:55;96773.97;;;11.38;56.39
10992;BME280;5549;47.028;15.514;2023-05-01T01:00:23;96774.16;;;11.46;56.13
10992;BME280;5549;47.028;15.514;2023-05-01T01:02:54;96771.56;;;11.56;56.75
10992;BME280;5549;47.028;15.514;2023-05-01T01:05:27;96773.94;;;11.59;56.39
10992;BME280;5549;47.028;15.514;2023-05-01T01:08:04;96774.91;;;11.37;57.06
10992;BME280;5549;47.028;15.514;2023-05-01T01:10:42;96766.06;;;11.59;56.26
10992;BME280;5549;47.028;15.514;2023-05-01T01:13:21;96771.06;;;11.62;56.44
10992;BME280;5549;47.028;15.514;2023-05-01T01:16:01;96767.19;;;11.66;56.55
10992;BME280;5549;47.028;15.514;2023-05-01T01:18:36;96769.50;;;11.60;56.92
10992;BME280;5549;47.028;15.514;2023-05-01T01:21:11;96771.06;;;11.62;56.52
10992;BME280;5549;47.028;15.514;2023-05-01T01:24:18;96765.53;;;11.65;56.08
10992;BME280;5549;47.028;15.514;2023-05-01T01:27:32;96767.31;;;11.65;56.56
10992;BME280;5549;47.028;15.514;2023-05-01T01:30:31;96770.22;;;11.62;56.57
10992;BME280;5549;47.028;15.514;2023-05-01T01:33:37;96766.06;;;11.59;56.91
10992;BME280;5549;47.028;15.514;2023-05-01T01:36:13;96766.75;;;11.61;56.47
10992;BME280;5549;47.028;15.514;2023-05-01T01:38:47;96763.59;;;11.67;55.82
10992;BME280;5549;47.028;15.514;2023-05-01T01:41:27;96755.59;;;11.69;56.08
10992;BME280;5549;47.028;15.514;2023-05-01T01:44:03;96761.22;;;11.64;56.46
10992;BME280;5549;47.028;15.514;2023-05-01T01:46:38;96763.72;;;11.66;56.18
10992;BME280;5549;47.028;15.514;2023-05-01T01:49:16;96762.63;;;11.68;56.11
10992;BME280;5549;47.028;15.514;2023-05-01T01:51:46;96756.41;;;11.69;55.96
10992;BME280;5549;47.028;15.514;2023-05-01T01:54:21;96761.41;;;11.72;55.57
10992;BME280;5549;47.028;15.514;2023-05-01T01:56:50;96763.59;;;11.67;56.32
10992;BME280;5549;47.028;15.514;2023-05-01T01:59:20;96771.38;;;11.69;56.04
10992;BME280;5549;47.028;15.514;2023-05-01T02:01:48;96763.34;;;11.70;55.65
10992;BME280;5549;47.028;15.514;2023-05-01T02:04:21;96755.84;;;11.66;56.76
10992;BME280;5549;47.028;15.514;2023-05-01T02:06:50;96760.72;;;11.70;56.44
10992;BME280;5549;47.028;15.514;2023-05-01T02:09:19;96756.94;;;11.63;57.05
10992;BME280;5549;47.028;15.514;2023-05-01T02:11:53;96752.91;;;11.59;57.22
10992;BME280;5549;47.028;15.514;2023-05-01T02:14:25;96749.44;;;11.58;57.80
10992;BME280;5549;47.028;15.514;2023-05-01T02:16:54;96744.81;;;11.51;58.26
10992;BME280;5549;47.028;15.514;2023-05-01T02:19:28;96743.56;;;11.45;57.65
10992;BME280;5549;47.028;15.514;2023-05-01T02:21:59;96749.06;;;11.42;57.98
10992;BME280;5549;47.028;15.514;2023-05-01T02:24:28;96754.59;;;11.39;58.40
10992;BME280;5549;47.028;15.514;2023-05-01T02:27:06;96752.09;;;11.38;57.61
10992;BME280;5549;47.028;15.514;2023-05-01T02:29:37;96744.31;;;11.36;57.87
10992;BME280;5549;47.028;15.514;2023-05-01T02:32:05;96743.69;;;11.23;58.66
10992;BME280;5549;47.028;15.514;2023-05-01T02:34:36;96742.16;;;11.20;58.27
10992;BME280;5549;47.028;15.514;2023-05-01T02:37:06;96740.50;;;11.19;58.13
10992;BME280;5549;47.028;15.514;2023-05-01T02:39:36;96742.78;;;11.13;58.11
10992;BME280;5549;47.028;15.514;2023-05-01T02:42:06;96735.03;;;11.11;57.73
10992;BME280;5549;47.028;15.514;2023-05-01T02:44:42;96737.22;;;11.06;57.89
10992;BME280;5549;47.028;15.514;2023-05-01T02:47:16;96735.88;;;11.12;58.29
10992;BME280;5549;47.028;15.514;2023-05-01T02:49:48;96737.91;;;11.08;58.46
10992;BME280;5549;47.028;15.514;2023-05-01T02:52:18;96744.38;;;11.04;59.06
10992;BME280;5549;47.028;15.514;2023-05-01T02:54:49;96747.16;;;11.03;58.78
10992;BME280;5549;47.028;15.514;2023-05-01T02:57:17;96737.47;;;11.03;58.87
10992;BME280;5549;47.028;15.514;2023-05-01T02:59:48;96736.06;;;10.99;58.16
10992;BME280;5549;47.028;15.514;2023-05-01T03:02:20;96740.47;;;10.99;58.65
10992;BME280;5549;47.028;15.514;2023-05-01T03:04:50;96745.03;;;10.97;59.23
10992;BME280;5549;47.028;15.514;2023-05-01T03:07:17;96736.31;;;10.96;58.36
10992;BME280;5549;47.028;15.514;2023-05-01T03:09:45;96733.69;;;10.96;58.42
10992;BME280;5549;47.028;15.514;2023-05-01T03:12:13;96742.28;;;10.98;58.28
10992;BME280;5549;47.028;15.514;2023-05-01T03:14:58;96739.66;;;10.98;57.94
10992;BME280;5549;47.028;15.514;2023-05-01T03:17:31;96741.31;;;10.99;58.50
10992;BME280;5549;47.028;15.514;2023-05-01T03:20:09;96742.72;;;11.03;59.17
10992;BME280;5549;47.028;15.514;2023-05-01T03:22:38;96738.44;;;11.02;58.84
10992;BME280;5549;47.028;15.514;2023-05-01T03:25:08;96738.44;;;11.02;58.56
10992;BME280;5549;47.028;15.514;2023-05-01T03:27:39;96739.38;;;11.01;58.42
10992;BME280;5549;47.028;15.514;2023-05-01T03:30:09;96745.47;;;11.02;58.00
10992;BME280;5549;47.028;15.514;2023-05-01T03:32:41;96746.19;;;11.04;58.61
10992;BME280;5549;47.028;15.514;2023-05-01T03:35:10;96748.44;;;11.08;59.59
10992;BME280;5549;47.028;15.514;2023-05-01T03:37:40;96753.50;;;11.00;60.20
10992;BME280;5549;47.028;15.514;2023-05-01T03:40:09;96751.88;;;10.88;59.75
10992;BME280;5549;47.028;15.514;2023-05-01T03:42:40;96753.53;;;10.89;59.77
10992;BME280;5549;47.028;15.514;2023-05-01T03:45:10;96749.94;;;10.90;60.49
10992;BME280;5549;47.028;15.514;2023-05-01T03:47:38;96744.81;;;10.88;60.10
10992;BME280;5549;47.028;15.514;2023-05-01T03:50:07;96745.66;;;10.89;60.26
10992;BME280;5549;47.028;15.514;2023-05-01T03:52:36;96737.91;;;10.87;60.00
10992;BME280;5549;47.028;15.514;2023-05-01T03:55:06;96743.75;;;10.91;60.35
10992;BME280;5549;47.028;15.514;2023-05-01T03:57:35;96738.22;;;10.94;59.95
10992;BME280;5549;47.028;15.514;2023-05-01T04:00:07;96742.28;;;10.98;60.15
10992;BME280;5549;47.028;15.514;2023-05-01T04:02:37;96738.69;;;10.99;60.12
10992;BME280;5549;47.028;15.514;2023-05-01T04:05:07;96741.88;;;11.03;59.69
10992;BME280;5549;47.028;15.514;2023-05-01T04:07:36;96732.78;;;11.07;60.90
10992;BME280;5549;47.028;15.514;2023-05-01T04:10:07;96737.78;;;11.10;60.21
10992;BME280;5549;47.028;15.514;2023-05-01T04:12:37;96736.84;;;11.11;61.12
10992;BME280;5549;47.028;15.514;2023-05-01T04:15:08;96737.41;;;11.14;60.68
10992;BME280;5549;47.028;15.514;2023-05-01T04:17:38;96742.22;;;11.09;61.09
10992;BME280;5549;47.028;15.514;2023-05-01T04:20:09;96736.84;;;11.11;60.85
10992;BME280;5549;47.028;15.514;2023-05-01T04:22:38;96740.41;;;11.10;61.05
10992;BME280;5549;47.028;15.514;2023-05-01T04:25:09;96733.63;;;11.07;60.58
10992;BME280;5549;47.028;15.514;2023-05-01T04:27:39;96734.34;;;11.09;60.78
10992;BME280;5549;47.028;15.514;2023-05-01T04:30:09;96736.44;;;11.15;60.27
10992;BME280;5549;47.028;15.514;2023-05-01T04:32:40;96745.63;;;11.21;60.84
10992;BME280;5549;47.028;15.514;2023-05-01T04:35:08;96745.50;;;11.22;62.18
10992;BME280;5549;47.028;15.514;2023-05-01T04:37:39;96746.63;;;11.30;62.09
10992;BME280;5549;47.028;15.514;2023-05-01T04:40:08;96752.47;;;11.33;62.18
10992;BME280;5549;47.028;15.514;2023-05-01T04:42:37;96757.28;;;11.28;62.53
10992;BME280;5549;47.028;15.514;2023-05-01T04:45:06;96759.53;;;11.33;62.52
10992;BME280;5549;47.028;15.514;2023-05-01T04:47:36;96754.13;;;11.34;62.48
10992;BME280;5549;47.028;15.514;2023-05-01T04:50:07;96762.94;;;11.23;63.38
10992;BME280;5549;47.028;15.514;2023-05-01T04:52:35;96767.53;;;11.31;64.09
10992;BME280;5549;47.028;15.514;2023-05-01T04:55:06;96765.28;;;11.27;64.62
10992;BME280;5549;47.028;15.514;2023-05-01T04:57:34;96769.59;;;11.28;64.06
10992;BME280;5549;47.028;15.514;2023-05-01T05:00:07;96773.63;;;11.32;63.98
10992;BME280;5549;47.028;15.514;2023-05-01T05:02:36;96766.19;;;11.37;63.03
10992;BME280;5549;47.028;15.514;2023-05-01T05:05:06;96776.47;;;11.40;62.36
10992;BME280;5549;47.028;15.514;2023-05-01T05:07:37;96776.19;;;11.43;63.06
10992;BME280;5549;47.028;15.514;2023-05-01T05:10:09;96778.44;;;11.47;62.30
10992;BME280;5549;47.028;15.514;2023-05-01T05:12:36;96782.03;;;11.46;63.70
10992;BME280;5549;47.028;15.514;2023-05-01T05:15:06;96787.03;;;11.49;64.03
10992;BME280;5549;47.028;15.514;2023-05-01T05:17:34;96782.78;;;11.58;64.30
10992;BME280;5549;47.028;15.514;2023-05-01T05:20:05;96785.31;;;11.60;65.13
10992;BME280;5549;47.028;15.514;2023-05-01T05:22:35;96786.56;;;11.65;64.64
10992;BME280;5549;47.028;15.514;2023-05-01T05:25:04;96787.16;;;11.69;64.32
10992;BME280;5549;47.028;15.514;2023-05-01T05:27:33;96788.31;;;11.55;64.92
10992;BME280;5549;47.028;15.514;2023-05-01T05:30:04;96794.72;;;11.62;64.96
10992;BME280;5549;47.028;15.514;2023-05-01T05:32:34;96802.25;;;11.46;64.91
10992;BME280;5549;47.028;15.514;2023-05-01T05:35:01;96801.22;;;11.58;65.46
10992;BME280;5549;47.028;15.514;2023-05-01T05:37:30;96800.44;;;11.67;65.24
10992;BME280;5549;47.028;15.514;2023-05-01T05:39:58;96797.16;;;11.75;65.07
10992;BME280;5549;47.028;15.514;2023-05-01T05:42:25;96800.97;;;11.82;64.81
10992;BME280;5549;47.028;15.514;2023-05-01T05:44:54;96790.47;;;11.92;64.14
10992;BME280;5549;47.028;15.514;2023-05-01T05:47:22;96793.41;;;11.98;64.67
10992;BME280;5549;47.028;15.514;2023-05-01T05:49:52;96787.31;;;11.98;64.10
10992;BME280;5549;47.028;15.514;2023-05-01T05:52:20;96796.09;;;11.77;66.72
10992;BME280;5549;47.028;15.514;2023-05-01T05:54:47;96792.50;;;11.78;67.25
10992;BME280;5549;47.028;15.514;2023-05-01T05:57:15;96791.75;;;11.76;68.43
10992;BME280;5549;47.028;15.514;2023-05-01T05:59:43;96791.75;;;11.97;67.55
10992;BME280;5549;47.028;15.514;2023-05-01T06:02:14;96790.91;;;12.17;67.03
10992;BME280;5549;47.028;15.514;2023-05-01T06:04:44;96785.22;;;12.22;65.40
10992;BME280;5549;47.028;15.514;2023-05-01T06:07:11;96784.94;;;12.15;66.52
10992;BME280;5549;47.028;15.514;2023-05-01T06:09:41;96787.56;;;12.75;69.74
10992;BME280;5549;47.028;15.514;2023-05-01T06:12:08;96787.06;;;13.20;71.46
10992;BME280;5549;47.028;15.514;2023-05-01T06:14:36;96785.06;;;13.60;70.79
10992;BME280;5549;47.028;15.514;2023-05-01T06:17:06;96777.91;;;13.99;68.84
10992;BME280;5549;47.028;15.514;2023-05-01T06:19:38;96771.22;;;14.42;64.58
10992;BME280;5549;47.028;15.514;2023-05-01T06:22:08;96775.59;;;14.96;65.29
10992;BME280;5549;47.028;15.514;2023-05-01T06:24:36;96768.69;;;15.39;61.31
10992;BME280;5549;47.028;15.514;2023-05-01T06:27:04;96759.59;;;15.59;56.85
10992;BME280;5549;47.028;15.514;2023-05-01T06:29:32;96761.13;;;15.88;54.91
10992;BME280;5549;47.028;15.514;2023-05-01T06:32:00;96755.53;;;15.65;50.05
10992;BME280;5549;47.028;15.514;2023-05-01T06:34:27;96761.97;;;15.88;54.48
10992;BME280;5549;47.028;15.514;2023-05-01T06:36:56;96754.72;;;16.32;53.39
10992;BME280;5549;47.028;15.514;2023-05-01T06:39:26;96755.16;;;16.62;50.50
10992;BME280;5549;47.028;15.514;2023-05-01T06:41:53;96757.88;;;16.86;47.72
10992;BME280;5549;47.028;15.514;2023-05-01T06:44:21;96756.78;;;16.55;44.85
10992;BME280;5549;47.028;15.514;2023-05-01T06:46:51;96764.75;;;16.55;45.21
10992;BME280;5549;47.028;15.514;2023-05-01T06:49:19;96764.91;;;16.61;45.55
10992;BME280;5549;47.028;15.514;2023-05-01T06:51:48;96762.16;;;16.71;45.11
10992;BME280;5549;47.028;15.514;2023-05-01T06:54:20;96759.47;;;16.63;45.49
10992;BME280;5549;47.028;15.514;2023-05-01T06:56:48;96765.50;;;16.81;45.91
10992;BME280;5549;47.028;15.514;2023-05-01T06:59:15;96764.53;;;17.07;45.58
10992;BME280;5549;47.028;15.514;2023-05-01T07:01:45;96763.19;;;16.86;44.29
10992;BME280;5549;47.028;15.514;2023-05-01T07:04:15;96767.19;;;16.98;44.44
10992;BME280;5549;47.028;15.514;2023-05-01T07:06:45;96764.19;;;16.93;44.41
10992;BME280;5549;47.028;15.514;2023-05-01T07:09:15;96767.66;;;16.86;42.65
10992;BME280;5549;47.028;15.514;2023-05-01T07:11:46;96761.69;;;16.76;45.77
10992;BME280;5549;47.028;15.514;2023-05-01T07:14:16;96772.22;;;16.17;44.18
10992;BME280;5549;47.028;15.514;2023-05-01T07:16:46;96777.81;;;16.14;46.05
10992;BME280;5549;47.028;15.514;2023-05-01T07:19:14;96771.97;;;16.36;44.97
10992;BME280;5549;47.028;15.514;2023-05-01T07:21:44;96775.25;;;16.30;44.84
10992;BME280;5549;47.028;15.514;2023-05-01T07:24:11;96778.56;;;15.98;44.86
10992;BME280;5549;47.028;15.514;2023-05-01T07:26:41;96775.75;;;16.68;46.31
10992;BME280;5549;47.028;15.514;2023-05-01T07:29:10;96769.91;;;16.64;43.91
10992;BME280;5549;47.028;15.514;2023-05-01T07:31:38;96769.50;;;16.93;44.36
10992;BME280;5549;47.028;15.514;2023-05-01T07:34:06;96762.50;;;16.76;45.48
10992;BME280;5549;47.028;15.514;2023-05-01T07:36:36;96771.06;;;16.62;46.61
10992;BME280;5549;47.028;15.514;2023-05-01T07:39:11;96767.47;;;16.79;43.76
10992;BME280;5549;47.028;15.514;2023-05-01T07:41:40;96768.88;;;17.24;43.89
10992;BME280;5549;47.028;15.514;2023-05-01T07:44:07;96762.59;;;17.57;44.08
10992;BME280;5549;47.028;15.514;2023-05-01T07:46:37;96765.75;;;17.85;44.19
10992;BME280;5549;47.028;15.514;2023-05-01T07:49:05;96767.56;;;17.60;41.66
10992;BME280;5549;47.028;15.514;2023-05-01T07:51:35;96764.19;;;16.93;43.95
10992;BME280;5549;47.028;15.514;2023-05-01T07:54:03;96765.22;;;17.09;43.13
10992;BME280;5549;47.028;15.514;2023-05-01T07:56:31;96770.00;;;16.97;43.02
10992;BME280;5549;47.028;15.514;2023-05-01T07:58:58;96770.22;;;17.60;43.97
10992;BME280;5549;47.028;15.514;2023-05-01T08:01:26;96765.59;;;17.79;42.41
10992;BME280;5549;47.028;15.514;2023-05-01T08:03:56;96765.09;;;17.43;42.41
10992;BME280;5549;47.028;15.514;2023-05-01T08:06:24;96767.25;;;17.55;43.05
10992;BME280;5549;47.028;15.514;2023-05-01T08:08:51;96765.56;;;17.62;42.39
10992;BME280;5549;47.028;15.514;2023-05-01T08:11:19;96765.03;;;16.94;43.74
10992;BME280;5549;47.028;15.514;2023-05-01T08:13:47;96769.84;;;16.98;43.55
10992;BME280;5549;47.028;15.514;2023-05-01T08:16:17;96771.38;;;16.59;43.46
10992;BME280;5549;47.028;15.514;2023-05-01T08:18:45;96773.38;;;17.40;45.97
10992;BME280;5549;47.028;15.514;2023-05-01T08:21:14;96767.22;;;17.15;43.29
10992;BME280;5549;47.028;15.514;2023-05-01T08:23:41;96769.06;;;17.79;43.68
10992;BME280;5549;47.028;15.514;2023-05-01T08:26:11;96759.72;;;18.00;42.61
10992;BME280;5549;47.028;15.514;2023-05-01T08:28:39;96760.22;;;17.95;42.26
10992;BME280;5549;47.028;15.514;2023-05-01T08:31:07;96761.25;;;17.53;41.37
10992;BME280;5549;47.028;15.514;2023-05-01T08:33:37;96757.63;;;17.79;42.70
10992;BME280;5549;47.028;15.514;2023-05-01T08:36:09;96756.28;;;17.42;43.72
10992;BME280;5549;47.028;15.514;2023-05-01T08:38:38;96762.91;;;17.14;45.26
10992;BME280;5549;47.028;15.514;2023-05-01T08:41:06;96767.56;;;17.52;43.66
10992;BME280;5549;47.028;15.514;2023-05-01T08:43:34;96769.91;;;17.39;43.95
10992;BME280;5549;47.028;15.514;2023-05-01T08:46:03;96762.59;;;17.41;43.17
10992;BME280;5549;47.028;15.514;2023-05-01T08:48:35;96757.44;;;17.48;43.55
10992;BME280;5549;47.028;15.514;2023-05-01T08:51:05;96757.25;;;17.09;46.21
10992;BME280;5549;47.028;15.514;2023-05-01T08:53:33;96761.59;;;17.34;45.14
10992;BME280;5549;47.028;15.514;2023-05-01T08:56:05;96758.13;;;17.74;43.79
10992;BME280;5549;47.028;15.514;2023-05-01T08:58:35;96756.63;;;17.55;42.67
10992;BME280;5549;47.028;15.514;2023-05-01T09:01:03;96755.75;;;17.14;46.37
10992;BME280;5549;47.028;15.514;2023-05-01T09:03:32;96758.94;;;17.58;44.72
10992;BME280;5549;47.028;15.514;2023-05-01T09:06:02;96750.34;;;18.20;46.41
10992;BME280;5549;47.028;15.514;2023-05-01T09:08:32;96754.44;;;18.39;44.80
10992;BME280;5549;47.028;15.514;2023-05-01T09:11:02;96739.34;;;18.70;44.08
10992;BME280;5549;47.028;15.514;2023-05-01T09:13:30;96748.25;;;18.07;42.68
10992;BME280;5549;47.028;15.514;2023-05-01T09:16:00;96758.38;;;18.04;42.84
10992;BME280;5549;47.028;15.514;2023-05-01T09:18:31;96751.50;;;18.25;42.97
10992;BME280;5549;47.028;15.514;2023-05-01T09:21:00;96761.63;;;17.67;43.65
10992;BME280;5549;47.028;15.514;2023-05-01T09:23:29;96758.78;;;17.36;44.82
10992;BME280;5549;47.028;15.514;2023-05-01T09:26:01;96754.56;;;18.06;45.43
10992;BME280;5549;47.028;15.514;2023-05-01T09:28:41;96745.28;;;18.02;44.11
10992;BME280;5549;47.028;15.514;2023-05-01T09:31:30;96745.72;;;18.14;42.70
10992;BME280;5549;47.028;15.514;2023-05-01T09:34:01;96733.75;;;18.57;43.42
10992;BME280;5549;47.028;15.514;2023-05-01T09:36:30;96739.53;;;18.60;42.51
10992;BME280;5549;47.028;15.514;2023-05-01T09:39:01;96741.72;;;18.65;41.62
10992;BME280;5549;47.028;15.514;2023-05-01T09:41:30;96744.53;;;18.95;41.50
10992;BME280;5549;47.028;15.514;2023-05-01T09:44:01;96739.97;;;19.03;41.53
10992;BME280;5549;47.028;15.514;2023-05-01T09:46:41;96738.06;;;18.89;41.62
10992;BME280;5549;47.028;15.514;2023-05-01T09:49:12;96740.63;;;18.82;41.60
10992;BME280;5549;47.028;15.514;2023-05-01T09:51:41;96739.03;;;18.96;43.12
10992;BME280;5549;47.028;15.514;2023-05-01T09:54:18;96736.69;;;19.24;40.67
10992;BME280;5549;47.028;15.514;2023-05-01T09:56:48;96731.63;;;19.06;39.99
10992;BME280;5549;47.028;15.514;2023-05-01T09:59:18;96736.34;;;19.27;41.23
10992;BME280;5549;47.028;15.514;2023-05-01T10:01:47;96737.06;;;18.90;39.04
10992;BME280;5549;47.028;15.514;2023-05-01T10:04:15;96731.81;;;19.05;39.71
10992;BME280;5549;47.028;15.514;2023-05-01T10:06:45;96739.19;;;18.95;40.76
10992;BME280;5549;47.028;15.514;2023-05-01T10:09:27;96739.84;;;18.97;43.03
10992;BME280;5549;47.028;15.514;2023-05-01T10:11:56;96733.44;;;19.14;40.55
10992;BME280;5549;47.028;15.514;2023-05-01T10:14:24;96727.19;;;18.99;41.05
10992;BME280;5549;47.028;15.514;2023-05-01T10:16:53;96733.16;;;19.01;40.24
10992;BME280;5549;47.028;15.514;2023-05-01T10:19:25;96737.41;;;18.87;41.70
10992;BME280;5549;47.028;15.514;2023-05-01T10:21:54;96731.50;;;19.00;42.85
10992;BME280;5549;47.028;15.514;2023-05-01T10:24:24;96722.56;;;18.70;43.83
10992;BME280;5549;47.028;15.514;2023-05-01T10:26:52;96720.69;;;18.78;44.88
10992;BME280;5549;47.028;15.514;2023-05-01T10:29:22;96720.81;;;19.31;43.47
10992;BME280;5549;47.028;15.514;2023-05-01T10:31:52;96721.28;;;18.88;43.53
10992;BME280;5549;47.028;15.514;2023-05-01T10:34:23;96722.84;;;19.29;41.98
10992;BME280;5549;47.028;15.514;2023-05-01T10:36:56;96724.53;;;19.44;38.79
10992;BME280;5549;47.028;15.514;2023-05-01T10:39:31;96720.91;;;19.60;40.05
10992;BME280;5549;47.028;15.514;2023-05-01T10:42:03;96721.44;;;19.18;40.25
10992;BME280;5549;47.028;15.514;2023-05-01T10:44:35;96713.69;;;19.46;39.98
10992;BME280;5549;47.028;15.514;2023-05-01T10:47:42;96724.38;;;19.23;38.06
10992;BME280;5549;47.028;15.514;2023-05-01T10:50:11;96717.63;;;19.58;38.22
10992;BME280;5549;47.028;15.514;2023-05-01T10:53:15;96715.16;;;19.11;38.85
10992;BME280;5549;47.028;15.514;2023-05-01T10:55:44;96709.59;;;19.20;39.75
10992;BME280;5549;47.028;15.514;2023-05-01T10:58:56;96713.25;;;18.97;39.82
10992;BME280;5549;47.028;15.514;2023-05-01T11:01:32;96705.69;;;19.08;40.05
10992;BME280;5549;47.028;15.514;2023-05-01T11:04:05;96704.59;;;18.95;39.78
10992;BME280;5549;47.028;15.514;2023-05-01T11:06:34;96701.66;;;19.12;41.97
10992;BME280;5549;47.028;15.514;2023-05-01T11:09:35;96694.13;;;18.70;39.51
10992;BME280;5549;47.028;15.514;2023-05-01T11:12:04;96694.44;;;18.75;40.27
10992;BME280;5549;47.028;15.514;2023-05-01T11:15:04;96687.19;;;18.61;40.76
10992;BME280;5549;47.028;15.514;2023-05-01T11:17:46;96686.16;;;18.93;39.01
10992;BME280;5549;47.028;15.514;2023-05-01T11:20:45;96679.66;;;18.96;39.02
10992;BME280;5549;47.028;15.514;2023-05-01T11:23:21;96671.38;;;18.90;38.60
10992;BME280;5549;47.028;15.514;2023-05-01T11:26:03;96676.09;;;18.80;39.08
10992;BME280;5549;47.028;15.514;2023-05-01T11:28:31;96668.06;;;18.88;38.55
10992;BME280;5549;47.028;15.514;2023-05-01T11:31:03;96668.06;;;18.88;41.33
10992;BME280;5549;47.028;15.514;2023-05-01T11:33:33;96665.75;;;18.85;40.49
10992;BME280;5549;47.028;15.514;2023-05-01T11:36:03;96664.94;;;18.85;41.12
10992;BME280;5549;47.028;15.514;2023-05-01T11:38:31;96655.13;;;19.08;41.91
10992;BME280;5549;47.028;15.514;2023-05-01T11:41:02;96650.25;;;19.12;40.64
10992;BME280;5549;47.028;15.514;2023-05-01T11:43:30;96645.59;;;18.91;41.81
10992;BME280;5549;47.028;15.514;2023-05-01T11:45:58;96643.22;;;18.96;41.82
10992;BME280;5549;47.028;15.514;2023-05-01T11:48:32;96635.91;;;18.75;40.34
10992;BME280;5549;47.028;15.514;2023-05-01T11:51:00;96646.97;;;18.56;40.98
10992;BME280;5549;47.028;15.514;2023-05-01T11:53:37;96638.09;;;18.41;42.27
10992;BME280;5549;47.028;15.514;2023-05-01T11:56:18;96641.97;;;18.30;39.39
10992;BME280;5549;47.028;15.514;2023-05-01T11:58:46;96637.53;;;18.53;40.99
10992;BME280;5549;47.028;15.514;2023-05-01T12:01:14;96643.88;;;18.75;40.03
10992;BME280;5549;47.028;15.514;2023-05-01T12:03:46;96635.53;;;18.78;39.67
10992;BME280;5549;47.028;15.514;2023-05-01T12:06:17;96637.50;;;18.31;40.57
10992;BME280;5549;47.028;15.514;2023-05-01T12:08:47;96641.31;;;18.59;40.71
10992;BME280;5549;47.028;15.514;2023-05-01T12:11:20;96637.50;;;18.62;39.55
10992;BME280;5549;47.028;15.514;2023-05-01T12:13:49;96637.44;;;18.70;39.59
10992;BME280;5549;47.028;15.514;2023-05-01T12:16:17;96630.81;;;18.88;41.32
10992;BME280;5549;47.028;15.514;2023-05-01T12:18:46;96630.19;;;19.24;38.06
10992;BME280;5549;47.028;15.514;2023-05-01T12:21:16;96629.00;;;19.04;40.46
10992;BME280;5549;47.028;15.514;2023-05-01T12:23:47;96620.38;;;19.25;41.33
10992;BME280;5549;47.028;15.514;2023-05-01T12:26:16;96621.31;;;19.46;38.74
10992;BME280;5549;47.028;15.514;2023-05-01T12:28:54;96620.50;;;19.61;41.99
10992;BME280;5549;47.028;15.514;2023-05-01T12:31:23;96606.63;;;19.95;39.54
10992;BME280;5549;47.028;15.514;2023-05-01T12:33:56;96608.19;;;19.60;37.66
10992;BME280;5549;47.028;15.514;2023-05-01T12:36:24;96614.81;;;19.78;40.52
10992;BME280;5549;47.028;15.514;2023-05-01T12:39:01;96606.00;;;19.78;38.58
10992;BME280;5549;47.028;15.514;2023-05-01T12:41:39;96615.00;;;19.10;41.56
10992;BME280;5549;47.028;15.514;2023-05-01T12:44:21;96598.25;;;19.24;39.35
10992;BME280;5549;47.028;15.514;2023-05-01T12:46:54;96609.28;;;19.50;38.12
10992;BME280;5549;47.028;15.514;2023-05-01T12:49:23;96607.53;;;19.43;37.44
10992;BME280;5549;47.028;15.514;2023-05-01T12:51:56;96601.75;;;19.39;37.48
10992;BME280;5549;47.028;15.514;2023-05-01T12:54:28;96603.53;;;19.62;37.77
10992;BME280;5549;47.028;15.514;2023-05-01T12:57:06;96597.09;;;19.56;38.68
10992;BME280;5549;47.028;15.514;2023-05-01T12:59:36;96605.31;;;19.46;40.67
10992;BME280;5549;47.028;15.514;2023-05-01T13:02:06;96597.78;;;19.50;38.22
10992;BME280;5549;47.028;15.514;2023-05-01T13:04:35;96600.56;;;19.71;38.30
10992;BME280;5549;47.028;15.514;2023-05-01T13:07:10;96594.75;;;19.97;38.18
10992;BME280;5549;47.028;15.514;2023-05-01T13:09:50;96593.03;;;19.90;40.55
10992;BME280;5549;47.028;15.514;2023-05-01T13:12:19;96581.63;;;19.96;39.00
10992;BME280;5549;47.028;15.514;2023-05-01T13:14:49;96576.06;;;20.12;37.46
10992;BME280;5549;47.028;15.514;2023-05-01T13:17:24;96580.41;;;19.98;38.46
10992;BME280;5549;47.028;15.514;2023-05-01T13:19:54;96574.72;;;20.01;40.38
10992;BME280;5549;47.028;15.514;2023-05-01T13:22:29;96566.97;;;20.06;37.77